sensor_id;sensor_type;location;lat;lon;timestamp;temperature;humidity
8858;DHT22;4465;50.904;4.696;2022-12-18T00:01:05;-4.00;99.90
8858;DHT22;4465;50.904;4.696;2022-12-18T00:03:37;-4.10;99.90
8858;DHT22;4465;50.904;4.696;2022-12-18T00:06:03;-4.10;99.90
8858;DHT22;4465;50.904;4.696;2022-12-18T00:08:29;-4.10;99.90
8858;DHT22;4465;50.904;4.696;2022-12-18T00:11:04;-4.10;99.90
8858;DHT22;4465;50.904;4.696;2022-12-18T00:13:31;-4.10;99.90
8858;DHT22;4465;50.904;4.696;2022-12-18T00:16:04;-4.10;99.90
8858;DHT22;4465;50.904;4.696;2022-12-18T00:18:31;-4.10;99.90
8858;DHT22;4465;50.904;4.696;2022-12-18T00:21:02;-4.10;99.90
8858;DHT22;4465;50.904;4.696;2022-12-18T00:23:29;-4.10;99.90
8858;DHT22;4465;50.904;4.696;2022-12-18T00:25:59;-4.10;99.90
8858;DHT22;4465;50.904;4.696;2022-12-18T00:28:25;-4.10;99.90
8858;DHT22;4465;50.904;4.696;2022-12-18T00:30:51;-4.20;99.90
8858;DHT22;4465;50.904;4.696;2022-12-18T00:33:17;-4.20;99.90
8858;DHT22;4465;50.904;4.696;2022-12-18T00:35:44;-4.20;99.90
8858;DHT22;4465;50.904;4.696;2022-12-18T00:38:09;-4.20;99.90
8858;DHT22;4465;50.904;4.696;2022-12-18T00:40:44;-4.30;99.90
8858;DHT22;4465;50.904;4.696;2022-12-18T00:43:10;-4.30;99.90
8858;DHT22;4465;50.904;4.696;2022-12-18T00:45:36;-4.30;99.90
8858;DHT22;4465;50.904;4.696;2022-12-18T00:48:03;-4.30;99.90
8858;DHT22;4465;50.904;4.696;2022-12-18T00:50:29;-4.30;99.90
8858;DHT22;4465;50.904;4.696;2022-12-18T00:52:55;-4.30;99.90
8858;DHT22;4465;50.904;4.696;2022-12-18T00:55:21;-4.30;99.90
8858;DHT22;4465;50.904;4.696;2022-12-18T00:57:47;-4.40;99.90
8858;DHT22;4465;50.904;4.696;2022-12-18T01:00:14;-4.40;99.90
8858;DHT22;4465;50.904;4.696;2022-12-18T01:02:41;-4.40;99.90
8858;DHT22;4465;50.904;4.696;2022-12-18T01:05:09;-4.40;99.90
8858;DHT22;4465;50.904;4.696;2022-12-18T01:07:35;-4.40;99.90
8858;DHT22;4465;50.904;4.696;2022-12-18T01:10:01;-4.40;99.90
8858;DHT22;4465;50.904;4.696;2022-12-18T01:12:27;-4.50;99.90
8858;DHT22;4465;50.904;4.696;2022-12-18T01:14:53;-4.50;99.90
8858;DHT22;4465;50.904;4.696;2022-12-18T01:17:21;-4.50;99.90
8858;DHT22;4465;50.904;4.696;2022-12-18T01:19:47;-4.50;99.90
8858;DHT22;4465;50.904;4.696;2022-12-18T01:22:13;-4.50;99.90
8858;DHT22;4465;50.904;4.696;2022-12-18T01:24:39;-4.50;99.90
8858;DHT22;4465;50.904;4.696;2022-12-18T01:27:07;-4.50;99.90
8858;DHT22;4465;50.904;4.696;2022-12-18T01:29:33;-4.50;99.90
8858;DHT22;4465;50.904;4.696;2022-12-18T01:32:02;-4.50;99.90
8858;DHT22;4465;50.904;4.696;2022-12-18T01:34:30;-4.50;99.90
8858;DHT22;4465;50.904;4.696;2022-12-18T01:36:56;-4.50;99.90
8858;DHT22;4465;50.904;4.696;2022-12-18T01:39:23;-4.60;99.90
8858;DHT22;4465;50.904;4.696;2022-12-18T01:41:49;-4.50;99.90
8858;DHT22;4465;50.904;4.696;2022-12-18T01:44:59;-4.50;99.90
8858;DHT22;4465;50.904;4.696;2022-12-18T01:47:41;-4.50;99.90
8858;DHT22;4465;50.904;4.696;2022-12-18T01:50:16;-4.50;99.90
8858;DHT22;4465;50.904;4.696;2022-12-18T01:52:45;-4.60;99.90
8858;DHT22;4465;50.904;4.696;2022-12-18T01:55:14;-4.60;99.90
8858;DHT22;4465;50.904;4.696;2022-12-18T01:57:42;-4.70;99.90
8858;DHT22;4465;50.904;4.696;2022-12-18T02:00:12;-4.70;99.90
8858;DHT22;4465;50.904;4.696;2022-12-18T02:02:41;-4.70;99.90
8858;DHT22;4465;50.904;4.696;2022-12-18T02:05:08;-4.80;99.90
8858;DHT22;4465;50.904;4.696;2022-12-18T02:10:32;-4.90;99.90
8858;DHT22;4465;50.904;4.696;2022-12-18T02:13:12;-4.90;99.90
8858;DHT22;4465;50.904;4.696;2022-12-18T02:15:51;-5.00;99.90
8858;DHT22;4465;50.904;4.696;2022-12-18T02:18:28;-5.00;99.90
8858;DHT22;4465;50.904;4.696;2022-12-18T02:26:30;-5.20;99.90
8858;DHT22;4465;50.904;4.696;2022-12-18T02:29:01;-5.30;99.90
8858;DHT22;4465;50.904;4.696;2022-12-18T02:31:33;-5.30;99.90
8858;DHT22;4465;50.904;4.696;2022-12-18T02:34:03;-5.40;99.90
8858;DHT22;4465;50.904;4.696;2022-12-18T02:36:32;-5.40;99.90
8858;DHT22;4465;50.904;4.696;2022-12-18T02:39:00;-5.50;99.90
8858;DHT22;4465;50.904;4.696;2022-12-18T02:41:26;-5.50;99.90
8858;DHT22;4465;50.904;4.696;2022-12-18T02:43:58;-5.60;99.90
8858;DHT22;4465;50.904;4.696;2022-12-18T02:46:46;-5.60;99.90
8858;DHT22;4465;50.904;4.696;2022-12-18T02:49:35;-5.60;99.90
8858;DHT22;4465;50.904;4.696;2022-12-18T02:58:10;-5.70;99.90
8858;DHT22;4465;50.904;4.696;2022-12-18T03:01:01;-5.70;99.90
8858;DHT22;4465;50.904;4.696;2022-12-18T03:03:30;-5.70;99.90
8858;DHT22;4465;50.904;4.696;2022-12-18T03:06:04;-5.70;99.90
8858;DHT22;4465;50.904;4.696;2022-12-18T03:08:40;-5.80;99.90
8858;DHT22;4465;50.904;4.696;2022-12-18T03:11:12;-5.80;99.90
8858;DHT22;4465;50.904;4.696;2022-12-18T03:13:54;-5.80;99.90
8858;DHT22;4465;50.904;4.696;2022-12-18T03:16:27;-5.80;99.90
8858;DHT22;4465;50.904;4.696;2022-12-18T03:19:11;-5.90;99.90
8858;DHT22;4465;50.904;4.696;2022-12-18T03:21:45;-5.90;99.90
8858;DHT22;4465;50.904;4.696;2022-12-18T03:24:15;-5.90;99.90
8858;DHT22;4465;50.904;4.696;2022-12-18T03:26:47;-5.90;99.90
8858;DHT22;4465;50.904;4.696;2022-12-18T03:29:52;-5.90;99.90
8858;DHT22;4465;50.904;4.696;2022-12-18T03:32:25;-5.90;99.90
8858;DHT22;4465;50.904;4.696;2022-12-18T03:34:53;-5.90;99.90
8858;DHT22;4465;50.904;4.696;2022-12-18T03:37:24;-5.90;99.90
8858;DHT22;4465;50.904;4.696;2022-12-18T03:39:50;-5.90;99.90
8858;DHT22;4465;50.904;4.696;2022-12-18T03:42:19;-5.90;99.90
8858;DHT22;4465;50.904;4.696;2022-12-18T03:45:13;-5.90;99.90
8858;DHT22;4465;50.904;4.696;2022-12-18T03:48:00;-5.90;99.90
8858;DHT22;4465;50.904;4.696;2022-12-18T03:51:16;-5.90;99.90
8858;DHT22;4465;50.904;4.696;2022-12-18T03:56:04;-5.90;99.90
8858;DHT22;4465;50.904;4.696;2022-12-18T03:58:33;-6.00;99.90
8858;DHT22;4465;50.904;4.696;2022-12-18T04:01:04;-6.00;99.90
8858;DHT22;4465;50.904;4.696;2022-12-18T04:03:32;-6.00;99.90
8858;DHT22;4465;50.904;4.696;2022-12-18T04:06:03;-6.00;99.90
8858;DHT22;4465;50.904;4.696;2022-12-18T04:08:29;-6.00;99.90
8858;DHT22;4465;50.904;4.696;2022-12-18T04:10:57;-6.00;99.90
8858;DHT22;4465;50.904;4.696;2022-12-18T04:13:27;-6.00;99.90
8858;DHT22;4465;50.904;4.696;2022-12-18T04:15:53;-6.00;99.90
8858;DHT22;4465;50.904;4.696;2022-12-18T04:18:19;-6.00;99.90
8858;DHT22;4465;50.904;4.696;2022-12-18T04:20:45;-6.00;99.90
8858;DHT22;4465;50.904;4.696;2022-12-18T04:23:11;-6.00;99.90
8858;DHT22;4465;50.904;4.696;2022-12-18T04:25:37;-6.00;99.90
8858;DHT22;4465;50.904;4.696;2022-12-18T04:28:03;-6.00;99.90
8858;DHT22;4465;50.904;4.696;2022-12-18T04:30:29;-6.10;99.90
8858;DHT22;4465;50.904;4.696;2022-12-18T04:32:55;-6.10;99.90
8858;DHT22;4465;50.904;4.696;2022-12-18T04:35:21;-6.10;99.90
8858;DHT22;4465;50.904;4.696;2022-12-18T04:37:47;-6.10;99.90
8858;DHT22;4465;50.904;4.696;2022-12-18T04:40:13;-6.20;99.90
8858;DHT22;4465;50.904;4.696;2022-12-18T04:42:40;-6.20;99.90
8858;DHT22;4465;50.904;4.696;2022-12-18T04:45:08;-6.20;99.90
8858;DHT22;4465;50.904;4.696;2022-12-18T04:47:34;-6.20;99.90
8858;DHT22;4465;50.904;4.696;2022-12-18T04:50:01;-6.30;99.90
8858;DHT22;4465;50.904;4.696;2022-12-18T04:52:29;-6.30;99.90
8858;DHT22;4465;50.904;4.696;2022-12-18T04:54:55;-6.30;99.90
8858;DHT22;4465;50.904;4.696;2022-12-18T04:57:21;-6.30;99.90
8858;DHT22;4465;50.904;4.696;2022-12-18T04:59:47;-6.30;99.90
8858;DHT22;4465;50.904;4.696;2022-12-18T05:02:13;-6.30;99.90
8858;DHT22;4465;50.904;4.696;2022-12-18T05:04:39;-6.40;99.90
8858;DHT22;4465;50.904;4.696;2022-12-18T05:07:05;-6.40;99.90
8858;DHT22;4465;50.904;4.696;2022-12-18T05:09:31;-6.40;99.90
8858;DHT22;4465;50.904;4.696;2022-12-18T05:11:56;-6.30;99.90
8858;DHT22;4465;50.904;4.696;2022-12-18T05:14:25;-6.30;99.90
8858;DHT22;4465;50.904;4.696;2022-12-18T05:16:51;-6.30;99.90
8858;DHT22;4465;50.904;4.696;2022-12-18T05:19:16;-6.20;99.90
8858;DHT22;4465;50.904;4.696;2022-12-18T05:21:42;-6.20;99.90
8858;DHT22;4465;50.904;4.696;2022-12-18T05:24:08;-6.10;99.90
8858;DHT22;4465;50.904;4.696;2022-12-18T05:26:34;-6.10;99.90
8858;DHT22;4465;50.904;4.696;2022-12-18T05:29:03;-6.10;99.90
8858;DHT22;4465;50.904;4.696;2022-12-18T05:31:29;-6.00;99.90
8858;DHT22;4465;50.904;4.696;2022-12-18T05:33:55;-6.00;99.90
8858;DHT22;4465;50.904;4.696;2022-12-18T05:36:20;-6.00;99.90
8858;DHT22;4465;50.904;4.696;2022-12-18T05:38:49;-5.90;99.90
8858;DHT22;4465;50.904;4.696;2022-12-18T05:41:17;-5.90;99.90
8858;DHT22;4465;50.904;4.696;2022-12-18T05:43:44;-5.90;99.90
8858;DHT22;4465;50.904;4.696;2022-12-18T05:46:15;-5.90;99.90
8858;DHT22;4465;50.904;4.696;2022-12-18T05:48:42;-5.80;99.90
8858;DHT22;4465;50.904;4.696;2022-12-18T05:51:10;-5.80;99.90
8858;DHT22;4465;50.904;4.696;2022-12-18T05:53:37;-5.80;99.90
8858;DHT22;4465;50.904;4.696;2022-12-18T05:56:08;-5.80;99.90
8858;DHT22;4465;50.904;4.696;2022-12-18T05:58:35;-5.80;99.90
8858;DHT22;4465;50.904;4.696;2022-12-18T06:01:16;-5.70;99.90
8858;DHT22;4465;50.904;4.696;2022-12-18T06:03:45;-5.70;99.90
8858;DHT22;4465;50.904;4.696;2022-12-18T06:06:22;-5.70;99.90
8858;DHT22;4465;50.904;4.696;2022-12-18T06:08:49;-5.70;99.90
8858;DHT22;4465;50.904;4.696;2022-12-18T06:11:21;-5.70;99.90
8858;DHT22;4465;50.904;4.696;2022-12-18T06:13:50;-5.70;99.90
8858;DHT22;4465;50.904;4.696;2022-12-18T06:16:19;-5.60;99.90
8858;DHT22;4465;50.904;4.696;2022-12-18T06:18:47;-5.70;99.90
8858;DHT22;4465;50.904;4.696;2022-12-18T06:21:15;-5.60;99.90
8858;DHT22;4465;50.904;4.696;2022-12-18T06:23:41;-5.60;99.90
8858;DHT22;4465;50.904;4.696;2022-12-18T06:26:09;-5.60;99.90
8858;DHT22;4465;50.904;4.696;2022-12-18T06:28:36;-5.60;99.90
8858;DHT22;4465;50.904;4.696;2022-12-18T06:31:03;-5.60;99.90
8858;DHT22;4465;50.904;4.696;2022-12-18T06:33:30;-5.60;99.90
8858;DHT22;4465;50.904;4.696;2022-12-18T06:36:04;-5.60;99.90
8858;DHT22;4465;50.904;4.696;2022-12-18T06:38:32;-5.60;99.90
8858;DHT22;4465;50.904;4.696;2022-12-18T06:40:58;-5.60;99.90
8858;DHT22;4465;50.904;4.696;2022-12-18T06:43:24;-5.60;99.90
8858;DHT22;4465;50.904;4.696;2022-12-18T06:45:49;-5.60;99.90
8858;DHT22;4465;50.904;4.696;2022-12-18T06:48:21;-5.50;99.90
8858;DHT22;4465;50.904;4.696;2022-12-18T06:50:50;-5.60;99.90
8858;DHT22;4465;50.904;4.696;2022-12-18T06:53:16;-5.60;99.90
8858;DHT22;4465;50.904;4.696;2022-12-18T06:55:42;-5.60;99.90
8858;DHT22;4465;50.904;4.696;2022-12-18T06:58:08;-5.60;99.90
8858;DHT22;4465;50.904;4.696;2022-12-18T07:00:34;-5.60;99.90
8858;DHT22;4465;50.904;4.696;2022-12-18T07:03:00;-5.50;99.90
8858;DHT22;4465;50.904;4.696;2022-12-18T07:05:26;-5.60;99.90
8858;DHT22;4465;50.904;4.696;2022-12-18T07:07:52;-5.50;99.90
8858;DHT22;4465;50.904;4.696;2022-12-18T07:10:18;-5.50;99.90
8858;DHT22;4465;50.904;4.696;2022-12-18T07:12:45;-5.50;99.90
8858;DHT22;4465;50.904;4.696;2022-12-18T07:15:10;-5.50;99.90
8858;DHT22;4465;50.904;4.696;2022-12-18T07:17:39;-5.50;99.90
8858;DHT22;4465;50.904;4.696;2022-12-18T07:20:08;-5.50;99.90
8858;DHT22;4465;50.904;4.696;2022-12-18T07:22:37;-5.50;99.90
8858;DHT22;4465;50.904;4.696;2022-12-18T07:25:04;-5.40;99.90
8858;DHT22;4465;50.904;4.696;2022-12-18T07:27:30;-5.40;99.90
8858;DHT22;4465;50.904;4.696;2022-12-18T07:29:56;-5.40;99.90
8858;DHT22;4465;50.904;4.696;2022-12-18T07:32:22;-5.40;99.90
8858;DHT22;4465;50.904;4.696;2022-12-18T07:34:51;-5.40;99.90
8858;DHT22;4465;50.904;4.696;2022-12-18T07:37:19;-5.40;99.90
8858;DHT22;4465;50.904;4.696;2022-12-18T07:39:47;-5.30;99.90
8858;DHT22;4465;50.904;4.696;2022-12-18T07:42:14;-5.30;99.90
8858;DHT22;4465;50.904;4.696;2022-12-18T07:45:01;-5.30;99.90
8858;DHT22;4465;50.904;4.696;2022-12-18T07:47:28;-5.30;99.90
8858;DHT22;4465;50.904;4.696;2022-12-18T07:49:54;-5.30;99.90
8858;DHT22;4465;50.904;4.696;2022-12-18T07:52:20;-5.20;99.90
8858;DHT22;4465;50.904;4.696;2022-12-18T07:54:46;-5.20;99.90
8858;DHT22;4465;50.904;4.696;2022-12-18T07:57:15;-5.20;99.90
8858;DHT22;4465;50.904;4.696;2022-12-18T07:59:42;-5.20;99.90
8858;DHT22;4465;50.904;4.696;2022-12-18T08:02:10;-5.20;99.90
8858;DHT22;4465;50.904;4.696;2022-12-18T08:04:36;-5.20;99.90
8858;DHT22;4465;50.904;4.696;2022-12-18T08:07:04;-5.20;99.90
8858;DHT22;4465;50.904;4.696;2022-12-18T08:09:30;-5.10;99.90
8858;DHT22;4465;50.904;4.696;2022-12-18T08:11:57;-5.10;99.90
8858;DHT22;4465;50.904;4.696;2022-12-18T08:14:23;-5.10;99.90
8858;DHT22;4465;50.904;4.696;2022-12-18T08:16:50;-5.00;99.90
8858;DHT22;4465;50.904;4.696;2022-12-18T08:19:16;-5.00;99.90
8858;DHT22;4465;50.904;4.696;2022-12-18T08:21:42;-4.90;99.90
8858;DHT22;4465;50.904;4.696;2022-12-18T08:24:09;-4.90;99.90
8858;DHT22;4465;50.904;4.696;2022-12-18T08:26:36;-4.80;99.90
8858;DHT22;4465;50.904;4.696;2022-12-18T08:29:04;-4.70;99.90
8858;DHT22;4465;50.904;4.696;2022-12-18T08:31:30;-4.70;99.90
8858;DHT22;4465;50.904;4.696;2022-12-18T08:33:57;-4.60;99.90
8858;DHT22;4465;50.904;4.696;2022-12-18T08:36:24;-4.40;99.90
8858;DHT22;4465;50.904;4.696;2022-12-18T08:38:51;-4.40;99.90
8858;DHT22;4465;50.904;4.696;2022-12-18T08:41:17;-4.30;99.90
8858;DHT22;4465;50.904;4.696;2022-12-18T08:43:46;-4.20;99.90
8858;DHT22;4465;50.904;4.696;2022-12-18T08:46:39;-4.10;99.90
8858;DHT22;4465;50.904;4.696;2022-12-18T08:49:06;-3.90;99.90
8858;DHT22;4465;50.904;4.696;2022-12-18T08:51:33;-3.90;99.90
8858;DHT22;4465;50.904;4.696;2022-12-18T08:54:00;-3.80;99.90
8858;DHT22;4465;50.904;4.696;2022-12-18T08:56:27;-3.70;99.90
8858;DHT22;4465;50.904;4.696;2022-12-18T08:58:54;-3.70;99.90
8858;DHT22;4465;50.904;4.696;2022-12-18T09:01:20;-3.60;99.90
8858;DHT22;4465;50.904;4.696;2022-12-18T09:03:47;-3.50;99.90
8858;DHT22;4465;50.904;4.696;2022-12-18T09:06:14;-3.50;99.90
8858;DHT22;4465;50.904;4.696;2022-12-18T09:08:42;-3.40;99.90
8858;DHT22;4465;50.904;4.696;2022-12-18T09:11:14;-3.30;99.90
8858;DHT22;4465;50.904;4.696;2022-12-18T09:13:42;-3.30;99.90
8858;DHT22;4465;50.904;4.696;2022-12-18T09:16:08;-3.20;99.90
8858;DHT22;4465;50.904;4.696;2022-12-18T09:18:34;-3.20;99.90
8858;DHT22;4465;50.904;4.696;2022-12-18T09:21:14;-3.10;99.90
8858;DHT22;4465;50.904;4.696;2022-12-18T09:23:40;-3.00;99.90
8858;DHT22;4465;50.904;4.696;2022-12-18T09:26:06;-2.90;99.90
8858;DHT22;4465;50.904;4.696;2022-12-18T09:28:35;-2.80;99.90
8858;DHT22;4465;50.904;4.696;2022-12-18T09:31:07;-2.80;99.90
8858;DHT22;4465;50.904;4.696;2022-12-18T09:33:37;-2.70;99.90
8858;DHT22;4465;50.904;4.696;2022-12-18T09:36:04;-2.60;99.90
8858;DHT22;4465;50.904;4.696;2022-12-18T09:38:32;-2.50;99.90
8858;DHT22;4465;50.904;4.696;2022-12-18T09:43:58;-2.40;99.90
8858;DHT22;4465;50.904;4.696;2022-12-18T09:46:33;-2.40;99.90
8858;DHT22;4465;50.904;4.696;2022-12-18T09:49:10;-2.30;99.90
8858;DHT22;4465;50.904;4.696;2022-12-18T09:51:52;-2.30;99.90
8858;DHT22;4465;50.904;4.696;2022-12-18T09:54:26;-2.30;99.90
8858;DHT22;4465;50.904;4.696;2022-12-18T09:56:56;-2.20;99.90
8858;DHT22;4465;50.904;4.696;2022-12-18T09:59:26;-2.20;99.90
8858;DHT22;4465;50.904;4.696;2022-12-18T10:01:56;-2.10;99.90
8858;DHT22;4465;50.904;4.696;2022-12-18T10:04:23;-2.10;99.90
8858;DHT22;4465;50.904;4.696;2022-12-18T10:06:55;-2.00;99.90
8858;DHT22;4465;50.904;4.696;2022-12-18T10:12:26;-2.00;99.90
8858;DHT22;4465;50.904;4.696;2022-12-18T10:15:13;-1.90;99.90
8858;DHT22;4465;50.904;4.696;2022-12-18T10:18:07;-1.90;99.90
8858;DHT22;4465;50.904;4.696;2022-12-18T10:20:48;-1.80;99.90
8858;DHT22;4465;50.904;4.696;2022-12-18T10:23:20;-1.80;99.90
8858;DHT22;4465;50.904;4.696;2022-12-18T10:26:10;-1.70;99.90
8858;DHT22;4465;50.904;4.696;2022-12-18T10:28:38;-1.60;99.90
8858;DHT22;4465;50.904;4.696;2022-12-18T10:31:38;-1.60;99.90
8858;DHT22;4465;50.904;4.696;2022-12-18T10:33:58;-1.60;99.90
8858;DHT22;4465;50.904;4.696;2022-12-18T10:36:24;-1.50;99.90
8858;DHT22;4465;50.904;4.696;2022-12-18T10:38:50;-1.50;99.90
8858;DHT22;4465;50.904;4.696;2022-12-18T10:41:23;-1.50;99.90
8858;DHT22;4465;50.904;4.696;2022-12-18T10:44:21;-1.50;99.90
8858;DHT22;4465;50.904;4.696;2022-12-18T10:46:54;-1.40;99.90
8858;DHT22;4465;50.904;4.696;2022-12-18T10:49:29;-1.40;99.90
8858;DHT22;4465;50.904;4.696;2022-12-18T10:52:25;-1.40;99.90
8858;DHT22;4465;50.904;4.696;2022-12-18T10:55:03;-1.40;99.90
8858;DHT22;4465;50.904;4.696;2022-12-18T10:57:33;-1.30;99.90
8858;DHT22;4465;50.904;4.696;2022-12-18T11:02:49;-1.20;99.90
8858;DHT22;4465;50.904;4.696;2022-12-18T11:05:32;-1.20;99.90
8858;DHT22;4465;50.904;4.696;2022-12-18T11:08:00;-1.10;99.90
8858;DHT22;4465;50.904;4.696;2022-12-18T11:10:30;-1.10;99.90
8858;DHT22;4465;50.904;4.696;2022-12-18T11:13:10;-1.00;99.90
8858;DHT22;4465;50.904;4.696;2022-12-18T11:15:37;-0.90;99.90
8858;DHT22;4465;50.904;4.696;2022-12-18T11:18:17;-0.90;99.90
8858;DHT22;4465;50.904;4.696;2022-12-18T11:20:51;-0.80;99.90
8858;DHT22;4465;50.904;4.696;2022-12-18T11:23:21;-0.80;99.90
8858;DHT22;4465;50.904;4.696;2022-12-18T11:25:58;-0.70;99.90
8858;DHT22;4465;50.904;4.696;2022-12-18T11:28:35;-0.60;99.90
8858;DHT22;4465;50.904;4.696;2022-12-18T11:31:26;-0.60;99.90
8858;DHT22;4465;50.904;4.696;2022-12-18T11:36:34;-0.50;99.90
8858;DHT22;4465;50.904;4.696;2022-12-18T11:39:30;-0.40;99.90
8858;DHT22;4465;50.904;4.696;2022-12-18T11:42:14;-0.40;99.90
8858;DHT22;4465;50.904;4.696;2022-12-18T11:47:25;-0.30;99.90
8858;DHT22;4465;50.904;4.696;2022-12-18T11:49:55;-0.20;99.90
8858;DHT22;4465;50.904;4.696;2022-12-18T11:52:40;-0.20;99.90
8858;DHT22;4465;50.904;4.696;2022-12-18T11:55:37;-0.20;99.90
8858;DHT22;4465;50.904;4.696;2022-12-18T11:58:10;-0.20;99.90
8858;DHT22;4465;50.904;4.696;2022-12-18T12:00:45;-0.10;99.90
8858;DHT22;4465;50.904;4.696;2022-12-18T12:06:00;-0.10;99.90
8858;DHT22;4465;50.904;4.696;2022-12-18T12:12:21;0.00;99.90
8858;DHT22;4465;50.904;4.696;2022-12-18T12:22:57;0.20;99.90
8858;DHT22;4465;50.904;4.696;2022-12-18T12:25:42;0.20;99.90
8858;DHT22;4465;50.904;4.696;2022-12-18T12:36:26;0.30;99.90
8858;DHT22;4465;50.904;4.696;2022-12-18T12:39:01;0.30;99.90
8858;DHT22;4465;50.904;4.696;2022-12-18T12:41:32;0.40;99.90
8858;DHT22;4465;50.904;4.696;2022-12-18T12:44:27;0.40;99.90
8858;DHT22;4465;50.904;4.696;2022-12-18T12:47:00;0.50;99.90
8858;DHT22;4465;50.904;4.696;2022-12-18T12:49:31;0.50;99.90
8858;DHT22;4465;50.904;4.696;2022-12-18T12:52:15;0.60;99.90
8858;DHT22;4465;50.904;4.696;2022-12-18T12:54:44;0.60;99.90
8858;DHT22;4465;50.904;4.696;2022-12-18T12:57:23;0.60;99.90
8858;DHT22;4465;50.904;4.696;2022-12-18T13:00:13;0.70;99.90
8858;DHT22;4465;50.904;4.696;2022-12-18T13:03:24;0.70;99.90
8858;DHT22;4465;50.904;4.696;2022-12-18T13:05:58;0.70;99.90
8858;DHT22;4465;50.904;4.696;2022-12-18T13:08:31;0.80;99.90
8858;DHT22;4465;50.904;4.696;2022-12-18T13:11:00;0.80;99.90
8858;DHT22;4465;50.904;4.696;2022-12-18T13:14:02;0.80;99.90
8858;DHT22;4465;50.904;4.696;2022-12-18T13:16:30;0.90;99.90
8858;DHT22;4465;50.904;4.696;2022-12-18T13:18:57;0.90;99.90
8858;DHT22;4465;50.904;4.696;2022-12-18T13:21:29;1.00;99.90
8858;DHT22;4465;50.904;4.696;2022-12-18T13:23:57;1.00;99.90
8858;DHT22;4465;50.904;4.696;2022-12-18T13:26:39;1.00;99.90
8858;DHT22;4465;50.904;4.696;2022-12-18T13:29:05;1.10;99.90
8858;DHT22;4465;50.904;4.696;2022-12-18T13:36:45;1.20;99.90
8858;DHT22;4465;50.904;4.696;2022-12-18T13:39:23;1.20;99.90
8858;DHT22;4465;50.904;4.696;2022-12-18T13:42:38;1.20;99.90
8858;DHT22;4465;50.904;4.696;2022-12-18T13:45:00;1.30;99.90
8858;DHT22;4465;50.904;4.696;2022-12-18T13:47:32;1.30;99.90
8858;DHT22;4465;50.904;4.696;2022-12-18T13:49:58;1.30;99.90
8858;DHT22;4465;50.904;4.696;2022-12-18T13:52:26;1.50;99.90
8858;DHT22;4465;50.904;4.696;2022-12-18T13:54:59;1.40;99.90
8858;DHT22;4465;50.904;4.696;2022-12-18T13:57:33;1.50;99.90
8858;DHT22;4465;50.904;4.696;2022-12-18T14:00:26;1.30;99.90
8858;DHT22;4465;50.904;4.696;2022-12-18T14:02:55;1.30;99.90
8858;DHT22;4465;50.904;4.696;2022-12-18T14:05:28;1.40;99.90
8858;DHT22;4465;50.904;4.696;2022-12-18T14:07:59;1.40;99.90
8858;DHT22;4465;50.904;4.696;2022-12-18T14:10:27;1.40;99.90
8858;DHT22;4465;50.904;4.696;2022-12-18T14:12:53;1.30;99.90
8858;DHT22;4465;50.904;4.696;2022-12-18T14:20:25;1.40;99.90
8858;DHT22;4465;50.904;4.696;2022-12-18T14:22:53;1.30;99.90
8858;DHT22;4465;50.904;4.696;2022-12-18T14:25:26;1.40;99.90
8858;DHT22;4465;50.904;4.696;2022-12-18T14:28:14;1.40;99.90
8858;DHT22;4465;50.904;4.696;2022-12-18T14:30:42;1.40;99.90
8858;DHT22;4465;50.904;4.696;2022-12-18T14:33:20;1.40;99.90
8858;DHT22;4465;50.904;4.696;2022-12-18T14:36:04;1.40;99.90
8858;DHT22;4465;50.904;4.696;2022-12-18T14:38:34;1.40;99.90
8858;DHT22;4465;50.904;4.696;2022-12-18T14:41:12;1.40;99.90
8858;DHT22;4465;50.904;4.696;2022-12-18T14:43:43;1.40;99.90
8858;DHT22;4465;50.904;4.696;2022-12-18T14:46:44;1.40;99.90
8858;DHT22;4465;50.904;4.696;2022-12-18T14:49:30;1.40;99.90
8858;DHT22;4465;50.904;4.696;2022-12-18T14:52:05;1.40;99.90
8858;DHT22;4465;50.904;4.696;2022-12-18T14:54:32;1.40;99.90
8858;DHT22;4465;50.904;4.696;2022-12-18T14:57:22;1.40;99.90
8858;DHT22;4465;50.904;4.696;2022-12-18T14:59:49;1.30;99.90
8858;DHT22;4465;50.904;4.696;2022-12-18T15:02:27;1.30;99.90
8858;DHT22;4465;50.904;4.696;2022-12-18T15:05:21;1.30;99.90
8858;DHT22;4465;50.904;4.696;2022-12-18T15:07:52;1.30;99.90
8858;DHT22;4465;50.904;4.696;2022-12-18T15:10:27;1.30;99.90
8858;DHT22;4465;50.904;4.696;2022-12-18T15:18:02;1.30;99.90
8858;DHT22;4465;50.904;4.696;2022-12-18T15:20:32;1.20;99.90
8858;DHT22;4465;50.904;4.696;2022-12-18T15:22:58;1.30;99.90
8858;DHT22;4465;50.904;4.696;2022-12-18T15:25:33;1.30;99.90
8858;DHT22;4465;50.904;4.696;2022-12-18T15:28:00;1.20;99.90
8858;DHT22;4465;50.904;4.696;2022-12-18T15:30:26;1.20;99.90
8858;DHT22;4465;50.904;4.696;2022-12-18T15:33:24;1.20;99.90
8858;DHT22;4465;50.904;4.696;2022-12-18T15:35:58;1.20;99.90
8858;DHT22;4465;50.904;4.696;2022-12-18T15:38:27;1.20;99.90
8858;DHT22;4465;50.904;4.696;2022-12-18T15:40:54;1.20;99.90
8858;DHT22;4465;50.904;4.696;2022-12-18T15:43:23;1.10;99.90
8858;DHT22;4465;50.904;4.696;2022-12-18T15:46:23;1.20;99.90
8858;DHT22;4465;50.904;4.696;2022-12-18T15:48:54;1.20;99.90
8858;DHT22;4465;50.904;4.696;2022-12-18T15:51:26;1.20;99.90
8858;DHT22;4465;50.904;4.696;2022-12-18T15:53:56;1.10;99.90
8858;DHT22;4465;50.904;4.696;2022-12-18T15:56:27;1.20;99.90
8858;DHT22;4465;50.904;4.696;2022-12-18T15:59:14;1.20;99.90
8858;DHT22;4465;50.904;4.696;2022-12-18T16:01:42;1.20;99.90
8858;DHT22;4465;50.904;4.696;2022-12-18T16:04:13;1.20;99.90
8858;DHT22;4465;50.904;4.696;2022-12-18T16:06:39;1.30;99.90
8858;DHT22;4465;50.904;4.696;2022-12-18T16:09:06;1.10;99.90
8858;DHT22;4465;50.904;4.696;2022-12-18T16:11:34;1.10;99.90
8858;DHT22;4465;50.904;4.696;2022-12-18T16:14:33;1.10;99.90
8858;DHT22;4465;50.904;4.696;2022-12-18T16:17:06;1.10;99.90
8858;DHT22;4465;50.904;4.696;2022-12-18T16:19:37;1.10;99.90
8858;DHT22;4465;50.904;4.696;2022-12-18T16:22:03;1.10;99.90
8858;DHT22;4465;50.904;4.696;2022-12-18T16:24:33;1.10;99.90
8858;DHT22;4465;50.904;4.696;2022-12-18T16:27:02;1.10;99.90
8858;DHT22;4465;50.904;4.696;2022-12-18T16:29:29;1.20;99.90
8858;DHT22;4465;50.904;4.696;2022-12-18T16:31:59;1.20;99.90
8858;DHT22;4465;50.904;4.696;2022-12-18T16:34:33;1.20;99.90
8858;DHT22;4465;50.904;4.696;2022-12-18T16:37:03;1.20;99.90
8858;DHT22;4465;50.904;4.696;2022-12-18T16:39:29;1.20;99.90
8858;DHT22;4465;50.904;4.696;2022-12-18T16:41:56;1.20;99.90
8858;DHT22;4465;50.904;4.696;2022-12-18T16:44:25;1.10;99.90
8858;DHT22;4465;50.904;4.696;2022-12-18T16:46:51;1.20;99.90
8858;DHT22;4465;50.904;4.696;2022-12-18T16:49:18;1.20;99.90
8858;DHT22;4465;50.904;4.696;2022-12-18T16:51:49;1.20;99.90
8858;DHT22;4465;50.904;4.696;2022-12-18T16:54:15;1.20;99.90
8858;DHT22;4465;50.904;4.696;2022-12-18T16:56:41;1.20;99.90
8858;DHT22;4465;50.904;4.696;2022-12-18T16:59:10;1.30;99.90
8858;DHT22;4465;50.904;4.696;2022-12-18T17:01:37;1.20;99.90
8858;DHT22;4465;50.904;4.696;2022-12-18T17:04:05;1.20;99.90
8858;DHT22;4465;50.904;4.696;2022-12-18T17:06:38;1.20;99.90
8858;DHT22;4465;50.904;4.696;2022-12-18T17:09:10;1.20;99.90
8858;DHT22;4465;50.904;4.696;2022-12-18T17:11:36;1.20;99.90
8858;DHT22;4465;50.904;4.696;2022-12-18T17:14:14;1.20;99.90
8858;DHT22;4465;50.904;4.696;2022-12-18T17:16:40;1.20;99.90
8858;DHT22;4465;50.904;4.696;2022-12-18T17:19:06;1.30;99.90
8858;DHT22;4465;50.904;4.696;2022-12-18T17:21:34;1.30;99.90
8858;DHT22;4465;50.904;4.696;2022-12-18T17:24:01;1.20;99.90
8858;DHT22;4465;50.904;4.696;2022-12-18T17:26:28;1.30;99.90
8858;DHT22;4465;50.904;4.696;2022-12-18T17:28:57;1.20;99.90
8858;DHT22;4465;50.904;4.696;2022-12-18T17:31:26;1.30;99.90
8858;DHT22;4465;50.904;4.696;2022-12-18T17:33:53;1.30;99.90
8858;DHT22;4465;50.904;4.696;2022-12-18T17:36:20;1.30;99.90
8858;DHT22;4465;50.904;4.696;2022-12-18T17:38:57;1.30;99.90
8858;DHT22;4465;50.904;4.696;2022-12-18T17:41:25;1.40;99.90
8858;DHT22;4465;50.904;4.696;2022-12-18T17:43:52;1.40;99.90